createdAt,value
2019-05-07T00:00:15.694Z,1014.25
2019-05-07T00:01:16.130Z,1014.28
2019-05-07T00:02:16.556Z,1014.24
2019-05-07T00:03:17.010Z,1014.28
2019-05-07T00:04:17.452Z,1014.27
2019-05-07T00:05:17.897Z,1014.26
2019-05-07T00:06:18.324Z,1014.29
2019-05-07T00:07:18.753Z,1014.26
2019-05-07T00:08:22.936Z,1014.29
2019-05-07T00:09:23.602Z,1014.27
2019-05-07T00:10:24.987Z,1014.28
2019-05-07T00:11:25.517Z,1014.27
2019-05-07T00:12:25.945Z,1014.29
2019-05-07T00:13:26.375Z,1014.24
2019-05-07T00:14:26.809Z,1014.28
2019-05-07T00:15:27.363Z,1014.26
2019-05-07T00:16:27.837Z,1014.26
2019-05-07T00:17:28.368Z,1014.34
2019-05-07T00:18:28.790Z,1014.26
2019-05-07T00:19:29.218Z,1014.24
2019-05-07T00:20:29.661Z,1014.24
2019-05-07T00:21:30.086Z,1014.21
2019-05-07T00:22:32.591Z,1014.20
2019-05-07T00:23:33.135Z,1014.21
2019-05-07T00:24:33.574Z,1014.18
2019-05-07T00:25:34.046Z,1014.18
2019-05-07T00:26:34.515Z,1014.17
2019-05-07T00:27:34.948Z,1014.17
2019-05-07T00:28:35.378Z,1014.11
2019-05-07T00:29:35.805Z,1014.18
2019-05-07T00:30:36.280Z,1014.15
2019-05-07T00:31:36.707Z,1014.16
2019-05-07T00:32:37.176Z,1014.18
2019-05-07T00:33:37.614Z,1014.13
2019-05-07T00:34:38.117Z,1014.17
2019-05-07T00:35:38.562Z,1014.16
2019-05-07T00:36:38.998Z,1014.21
2019-05-07T00:37:39.425Z,1014.19
2019-05-07T00:38:39.923Z,1014.17
2019-05-07T00:39:42.423Z,1014.17
2019-05-07T00:40:44.073Z,1014.18
2019-05-07T00:41:44.518Z,1014.17
2019-05-07T00:42:44.965Z,1014.16
2019-05-07T00:43:45.408Z,1014.11
2019-05-07T00:44:45.841Z,1014.16
2019-05-07T00:45:46.293Z,1014.18
2019-05-07T00:46:46.723Z,1014.18
2019-05-07T00:47:47.171Z,1014.15
2019-05-07T00:48:47.597Z,1014.20
2019-05-07T00:49:48.025Z,1014.17
2019-05-07T00:50:48.467Z,1014.12
2019-05-07T00:51:48.893Z,1014.16
2019-05-07T00:52:49.441Z,1014.16
2019-05-07T00:53:51.934Z,1014.20
2019-05-07T00:54:53.138Z,1014.13
2019-05-07T00:55:53.631Z,1014.17
2019-05-07T00:56:54.069Z,1014.26
2019-05-07T00:57:54.505Z,1014.22
2019-05-07T00:58:54.932Z,1014.20
2019-05-07T00:59:55.359Z,1014.23
2019-05-07T01:00:55.807Z,1014.25
2019-05-07T01:01:56.243Z,1014.20
2019-05-07T01:02:56.680Z,1014.15
2019-05-07T01:03:57.126Z,1014.23
2019-05-07T01:04:57.555Z,1014.20
2019-05-07T01:05:58.012Z,1014.16
2019-05-07T01:06:58.456Z,1014.18
2019-05-07T01:07:58.892Z,1014.18
2019-05-07T01:08:59.332Z,1014.17
2019-05-07T01:10:02.019Z,1014.22
2019-05-07T01:11:02.715Z,1014.18
2019-05-07T01:12:03.297Z,1014.22
2019-05-07T01:13:03.730Z,1014.17
2019-05-07T01:14:04.154Z,1014.16
2019-05-07T01:15:04.639Z,1014.20
2019-05-07T01:16:05.089Z,1014.22
2019-05-07T01:17:05.527Z,1014.21
2019-05-07T01:18:05.998Z,1014.28
2019-05-07T01:19:06.430Z,1014.22
2019-05-07T01:20:06.863Z,1014.17
2019-05-07T01:21:07.318Z,1014.18
2019-05-07T01:22:07.835Z,1014.23
2019-05-07T01:23:09.295Z,1014.16
2019-05-07T01:24:09.728Z,1014.13
2019-05-07T01:25:10.161Z,1014.17
2019-05-07T01:26:12.462Z,1014.16
2019-05-07T01:27:13.005Z,1014.13
2019-05-07T01:28:13.527Z,1014.12
2019-05-07T01:29:13.981Z,1014.16
2019-05-07T01:30:15.490Z,1014.18
2019-05-07T01:31:15.944Z,1014.19
2019-05-07T01:32:16.434Z,1014.20
2019-05-07T01:33:16.895Z,1014.23
2019-05-07T01:34:17.888Z,1014.21
2019-05-07T01:35:18.319Z,1014.17
2019-05-07T01:36:19.909Z,1014.21
2019-05-07T01:37:20.336Z,1014.24
2019-05-07T01:38:22.875Z,1014.31
2019-05-07T01:39:23.420Z,1014.19
2019-05-07T01:40:23.961Z,1014.25
2019-05-07T01:41:24.410Z,1014.23
2019-05-07T01:42:24.902Z,1014.23
2019-05-07T01:43:25.334Z,1014.23
2019-05-07T01:44:25.836Z,1014.20
2019-05-07T01:45:26.265Z,1014.17
2019-05-07T01:46:26.828Z,1014.26
2019-05-07T01:47:27.267Z,1014.24
2019-05-07T01:48:27.724Z,1014.23
2019-05-07T01:49:28.265Z,1014.22
2019-05-07T01:50:32.221Z,1014.24
2019-05-07T01:51:32.847Z,1014.25
2019-05-07T01:52:34.392Z,1014.19
2019-05-07T01:53:34.811Z,1014.19
2019-05-07T01:54:35.237Z,1014.18
2019-05-07T01:55:35.661Z,1014.23
2019-05-07T01:56:36.102Z,1014.20
2019-05-07T01:57:36.526Z,1014.14
2019-05-07T01:58:36.965Z,1014.15
2019-05-07T01:59:39.458Z,1014.16
2019-05-07T02:00:42.217Z,1014.14
2019-05-07T02:01:43.144Z,1014.16
2019-05-07T02:02:43.580Z,1014.14
2019-05-07T02:03:44.083Z,1014.17
2019-05-07T02:04:44.519Z,1014.17
2019-05-07T02:05:45.015Z,1014.18
2019-05-07T02:06:45.477Z,1014.18
2019-05-07T02:07:45.914Z,1014.16
2019-05-07T02:08:46.373Z,1014.20
2019-05-07T02:09:46.804Z,1014.20
2019-05-07T02:10:47.231Z,1014.23
2019-05-07T02:11:47.791Z,1014.22
2019-05-07T02:12:48.235Z,1014.23
2019-05-07T02:13:48.864Z,1014.23
2019-05-07T02:14:49.291Z,1014.18
2019-05-07T02:16:00.231Z,1014.17
2019-05-07T02:16:56.218Z,1014.17
2019-05-07T02:17:56.671Z,1014.22
2019-05-07T02:18:57.101Z,1014.20
2019-05-07T02:19:57.619Z,1014.18
2019-05-07T02:20:58.083Z,1014.21
2019-05-07T02:21:58.584Z,1014.18
2019-05-07T02:22:59.027Z,1014.15
2019-05-07T02:24:00.501Z,1014.22
2019-05-07T02:25:03.124Z,1014.19
2019-05-07T02:26:03.897Z,1014.19
2019-05-07T02:27:04.349Z,1014.21
2019-05-07T02:28:04.836Z,1014.22
2019-05-07T02:29:05.293Z,1014.29
2019-05-07T02:30:05.738Z,1014.21
2019-05-07T02:31:06.178Z,1014.24
2019-05-07T02:32:06.632Z,1014.24
2019-05-07T02:33:07.071Z,1014.26
2019-05-07T02:34:07.504Z,1014.29
2019-05-07T02:35:07.960Z,1014.20
2019-05-07T02:36:08.469Z,1014.18
2019-05-07T02:37:08.929Z,1014.17
2019-05-07T02:38:09.395Z,1014.20
2019-05-07T02:39:12.630Z,1014.15
2019-05-07T02:40:14.213Z,1014.18
2019-05-07T02:41:14.793Z,1014.17
2019-05-07T02:42:15.250Z,1014.16
2019-05-07T02:43:15.691Z,1014.15
2019-05-07T02:44:16.134Z,1014.15
2019-05-07T02:45:16.591Z,1014.15
2019-05-07T02:46:26.053Z,1014.15
2019-05-07T02:47:23.714Z,1014.16
2019-05-07T02:48:24.286Z,1014.13
2019-05-07T02:49:24.730Z,1014.12
2019-05-07T02:50:25.173Z,1014.14
2019-05-07T02:51:25.604Z,1014.17
2019-05-07T02:52:26.051Z,1014.13
2019-05-07T02:53:26.480Z,1014.14
2019-05-07T02:54:26.912Z,1014.10
2019-05-07T02:55:27.345Z,1014.12
2019-05-07T02:56:27.779Z,1014.15
2019-05-07T02:57:28.243Z,1014.06
2019-05-07T02:58:28.760Z,1014.06
2019-05-07T02:59:29.191Z,1014.08
2019-05-07T03:00:29.629Z,1014.07
2019-05-07T03:01:30.066Z,1014.10
2019-05-07T03:02:35.511Z,1014.07
2019-05-07T03:03:36.081Z,1014.12
2019-05-07T03:04:36.514Z,1014.12
2019-05-07T03:05:38.000Z,1014.08
2019-05-07T03:06:38.454Z,1014.10
2019-05-07T03:07:38.984Z,1014.10
2019-05-07T03:08:39.436Z,1014.11
2019-05-07T03:09:42.856Z,1014.12
2019-05-07T03:10:43.871Z,1014.15
2019-05-07T03:11:44.410Z,1014.17
2019-05-07T03:12:44.878Z,1014.10
2019-05-07T03:13:45.434Z,1014.12
2019-05-07T03:14:45.872Z,1014.08
2019-05-07T03:15:47.392Z,1014.11
2019-05-07T03:16:49.360Z,1014.09
2019-05-07T03:17:53.563Z,1014.11
2019-05-07T03:18:54.292Z,1014.13
2019-05-07T03:19:54.799Z,1014.09
2019-05-07T03:20:55.255Z,1014.09
2019-05-07T03:21:55.723Z,1014.10
2019-05-07T03:22:56.182Z,1014.13
2019-05-07T03:23:56.766Z,1014.09
2019-05-07T03:24:57.195Z,1014.13
2019-05-07T03:25:57.699Z,1014.10
2019-05-07T03:26:58.134Z,1014.07
2019-05-07T03:27:58.672Z,1014.08
2019-05-07T03:28:59.104Z,1014.08
2019-05-07T03:30:03.856Z,1014.07
2019-05-07T03:31:06.157Z,1014.05
2019-05-07T03:32:06.992Z,1014.01
2019-05-07T03:33:07.769Z,1014.04
2019-05-07T03:34:08.508Z,1014.02
2019-05-07T03:35:08.983Z,1014.07
2019-05-07T03:36:09.545Z,1014.06
2019-05-07T03:37:13.308Z,1014.09
2019-05-07T03:38:14.163Z,1014.10
2019-05-07T03:39:14.865Z,1014.08
2019-05-07T03:40:15.416Z,1014.04
2019-05-07T03:41:15.862Z,1014.10
2019-05-07T03:42:16.364Z,1014.04
2019-05-07T03:43:16.887Z,1014.04
2019-05-07T03:44:17.369Z,1014.06
2019-05-07T03:45:17.798Z,1014.07
2019-05-07T03:46:18.328Z,1014.05
2019-05-07T03:47:18.802Z,1014.11
2019-05-07T03:48:19.357Z,1014.01
2019-05-07T03:49:22.058Z,1013.95
2019-05-07T03:50:23.295Z,1014.03
2019-05-07T03:51:24.004Z,1014.08
2019-05-07T03:52:24.758Z,1014.10
2019-05-07T03:53:25.231Z,1014.03
2019-05-07T03:54:25.735Z,1014.04
2019-05-07T03:55:26.170Z,1014.08
2019-05-07T03:56:33.010Z,1014.08
2019-05-07T03:57:33.809Z,1014.04
2019-05-07T03:58:34.481Z,1014.04
2019-05-07T03:59:34.919Z,1014.02
2019-05-07T04:00:35.398Z,1014.05
2019-05-07T04:01:35.834Z,1014.03
2019-05-07T04:02:36.367Z,1014.05
2019-05-07T04:03:36.814Z,1014.01
2019-05-07T04:04:37.372Z,1014.00
2019-05-07T04:05:37.806Z,1014.08
2019-05-07T04:06:38.307Z,1014.04
2019-05-07T04:07:38.765Z,1014.06
2019-05-07T04:08:43.368Z,1014.16
2019-05-07T04:09:44.112Z,1014.11
2019-05-07T04:10:44.799Z,1014.11
2019-05-07T04:11:45.247Z,1014.08
2019-05-07T04:12:45.769Z,1014.05
2019-05-07T04:13:46.205Z,1014.07
2019-05-07T04:14:46.655Z,1014.06
2019-05-07T04:15:47.086Z,1014.09
2019-05-07T04:16:47.522Z,1014.08
2019-05-07T04:17:48.016Z,1014.05
2019-05-07T04:18:48.452Z,1014.16
2019-05-07T04:19:48.898Z,1014.12
2019-05-07T04:20:49.424Z,1014.11
2019-05-07T04:21:53.122Z,1014.15
2019-05-07T04:22:53.995Z,1014.14
2019-05-07T04:23:54.429Z,1014.14
2019-05-07T04:24:54.856Z,1014.16
2019-05-07T04:25:55.301Z,1014.14
2019-05-07T04:26:55.737Z,1014.23
2019-05-07T04:27:56.198Z,1014.21
2019-05-07T04:28:56.643Z,1014.18
2019-05-07T04:29:58.192Z,1014.18
2019-05-07T04:30:58.633Z,1014.21
2019-05-07T04:31:59.100Z,1014.15
2019-05-07T04:32:59.565Z,1014.13
2019-05-07T04:34:00.000Z,1014.15
2019-05-07T04:35:03.567Z,1014.18
2019-05-07T04:36:04.501Z,1014.15
2019-05-07T04:37:04.986Z,1014.09
2019-05-07T04:38:06.942Z,1014.12
2019-05-07T04:39:07.795Z,1014.14
2019-05-07T04:40:08.266Z,1014.11
2019-05-07T04:41:08.705Z,1014.09
2019-05-07T04:42:09.146Z,1014.12
2019-05-07T04:43:09.600Z,1014.10
2019-05-07T04:44:10.048Z,1014.09
2019-05-07T04:45:13.391Z,1014.12
2019-05-07T04:46:14.617Z,1014.07
2019-05-07T04:47:32.998Z,1014.12
2019-05-07T04:48:23.358Z,1014.14
2019-05-07T04:49:24.231Z,1014.10
2019-05-07T04:50:37.802Z,1014.13
2019-05-07T04:51:33.574Z,1014.17
2019-05-07T04:52:34.187Z,1014.18
2019-05-07T04:53:34.637Z,1014.19
2019-05-07T04:54:35.085Z,1014.15
2019-05-07T04:55:43.026Z,1014.15
2019-05-07T04:56:43.971Z,1014.19
2019-05-07T04:57:44.577Z,1014.21
2019-05-07T04:58:45.029Z,1014.15
2019-05-07T04:59:45.471Z,1014.16
2019-05-07T05:00:45.923Z,1014.19
2019-05-07T05:01:46.455Z,1014.14
2019-05-07T05:02:46.882Z,1014.18
2019-05-07T05:03:47.335Z,1014.18
2019-05-07T05:04:47.806Z,1014.17
2019-05-07T05:05:48.243Z,1014.16
2019-05-07T05:06:48.680Z,1014.17
2019-05-07T05:07:49.115Z,1014.14
2019-05-07T05:08:53.248Z,1014.15
2019-05-07T05:09:55.978Z,1014.12
2019-05-07T05:10:56.450Z,1014.18
2019-05-07T05:11:56.886Z,1014.18
2019-05-07T05:12:58.426Z,1014.13
2019-05-07T05:13:58.876Z,1014.16
2019-05-07T05:15:02.156Z,1014.12
2019-05-07T05:16:02.692Z,1014.17
2019-05-07T05:17:04.170Z,1014.21
2019-05-07T05:18:04.626Z,1014.14
2019-05-07T05:19:05.065Z,1014.19
2019-05-07T05:20:05.493Z,1014.20
2019-05-07T05:21:06.036Z,1014.13
2019-05-07T05:22:06.470Z,1014.19
2019-05-07T05:23:06.897Z,1014.23
2019-05-07T05:24:07.435Z,1014.23
2019-05-07T05:25:07.863Z,1014.20
2019-05-07T05:26:08.320Z,1014.15
2019-05-07T05:27:08.763Z,1014.24
2019-05-07T05:28:12.399Z,1014.25
2019-05-07T05:29:12.931Z,1014.17
2019-05-07T05:30:14.393Z,1014.25
2019-05-07T05:31:14.837Z,1014.23
2019-05-07T05:32:15.265Z,1014.24
2019-05-07T05:33:15.705Z,1014.24
2019-05-07T05:34:16.147Z,1014.19
2019-05-07T05:35:16.573Z,1014.18
2019-05-07T05:36:17.003Z,1014.27
2019-05-07T05:37:17.451Z,1014.20
2019-05-07T05:38:17.930Z,1014.23
2019-05-07T05:39:18.385Z,1014.21
2019-05-07T05:40:18.822Z,1014.19
2019-05-07T05:41:19.271Z,1014.19
2019-05-07T05:42:19.707Z,1014.15
2019-05-07T05:43:22.222Z,1014.19
2019-05-07T05:44:22.965Z,1014.22
2019-05-07T05:45:23.449Z,1014.22
2019-05-07T05:46:24.055Z,1014.21
2019-05-07T05:47:24.489Z,1014.20
2019-05-07T05:48:24.916Z,1014.22
2019-05-07T05:49:25.363Z,1014.21
2019-05-07T05:50:25.799Z,1014.16
2019-05-07T05:51:26.239Z,1014.17
2019-05-07T05:52:26.692Z,1014.13
2019-05-07T05:53:27.121Z,1014.13
2019-05-07T05:54:27.565Z,1014.15
2019-05-07T05:55:28.024Z,1014.09
2019-05-07T05:56:29.486Z,1014.13
2019-05-07T05:57:32.120Z,1014.14
2019-05-07T05:58:32.758Z,1014.18
2019-05-07T05:59:48.107Z,1014.11
2019-05-07T06:00:39.603Z,1014.08
2019-05-07T06:01:42.619Z,1014.12
2019-05-07T06:02:44.071Z,1014.17
2019-05-07T06:03:44.667Z,1014.15
2019-05-07T06:04:45.153Z,1014.13
2019-05-07T06:05:45.597Z,1014.18
2019-05-07T06:06:46.029Z,1014.24
2019-05-07T06:07:46.472Z,1014.17
2019-05-07T06:08:46.897Z,1014.22
2019-05-07T06:09:47.350Z,1014.17
2019-05-07T06:10:47.784Z,1014.17
2019-05-07T06:11:48.236Z,1014.14
2019-05-07T06:12:48.669Z,1014.08
2019-05-07T06:13:49.089Z,1014.12
2019-05-07T06:14:49.540Z,1014.10
2019-05-07T06:15:52.076Z,1014.17
2019-05-07T06:16:52.724Z,1014.11
2019-05-07T06:17:53.178Z,1014.17
2019-05-07T06:18:53.619Z,1014.19
2019-05-07T06:19:54.074Z,1014.20
2019-05-07T06:20:54.502Z,1014.20
2019-05-07T06:21:54.930Z,1014.16
2019-05-07T06:22:55.377Z,1014.17
2019-05-07T06:23:55.812Z,1014.12
2019-05-07T06:24:56.599Z,1014.13
2019-05-07T06:25:57.136Z,1014.15
2019-05-07T06:26:57.572Z,1014.17
2019-05-07T06:27:58.002Z,1014.14
2019-05-07T06:28:58.432Z,1014.17
2019-05-07T06:29:58.919Z,1014.19
2019-05-07T06:30:59.424Z,1014.16
2019-05-07T06:31:59.882Z,1014.17
2019-05-07T06:33:02.735Z,1014.21
2019-05-07T06:34:03.329Z,1014.18
2019-05-07T06:35:03.799Z,1014.19
2019-05-07T06:36:04.245Z,1014.16
2019-05-07T06:37:04.680Z,1014.13
2019-05-07T06:38:05.134Z,1014.21
2019-05-07T06:39:05.590Z,1014.18
2019-05-07T06:40:06.117Z,1014.15
2019-05-07T06:41:06.548Z,1014.17
2019-05-07T06:42:06.988Z,1014.17
2019-05-07T06:43:07.419Z,1014.19
2019-05-07T06:44:07.848Z,1014.17
2019-05-07T06:45:08.301Z,1014.25
2019-05-07T06:46:08.735Z,1014.23
2019-05-07T06:47:09.176Z,1014.19
2019-05-07T06:48:09.647Z,1014.16
2019-05-07T06:49:10.084Z,1014.16
2019-05-07T06:50:12.538Z,1014.17
2019-05-07T06:51:13.044Z,1014.13
2019-05-07T06:52:13.562Z,1014.18
2019-05-07T06:53:14.003Z,1014.16
2019-05-07T06:54:14.508Z,1014.16
2019-05-07T06:55:14.957Z,1014.17
2019-05-07T06:56:15.437Z,1014.18
2019-05-07T06:57:15.877Z,1014.15
2019-05-07T06:58:16.367Z,1014.18
2019-05-07T06:59:16.807Z,1014.15
2019-05-07T07:00:17.246Z,1014.12
2019-05-07T07:01:17.724Z,1014.16
2019-05-07T07:02:18.417Z,1014.15
2019-05-07T07:03:18.849Z,1014.14
2019-05-07T07:04:19.273Z,1014.11
2019-05-07T07:05:25.339Z,1014.12
2019-05-07T07:06:27.335Z,1014.10
2019-05-07T07:07:33.922Z,1014.17
2019-05-07T07:08:34.188Z,1014.11
2019-05-07T07:09:34.617Z,1014.10
2019-05-07T07:10:35.066Z,1014.13
2019-05-07T07:11:35.568Z,1014.16
2019-05-07T07:12:36.029Z,1014.12
2019-05-07T07:13:36.558Z,1014.20
2019-05-07T07:14:36.990Z,1014.19
2019-05-07T07:15:37.450Z,1014.14
2019-05-07T07:16:37.911Z,1014.20
2019-05-07T07:17:38.371Z,1014.19
2019-05-07T07:18:49.550Z,1014.20
2019-05-07T07:19:46.264Z,1014.20
2019-05-07T07:20:48.646Z,1014.15
2019-05-07T07:21:49.178Z,1014.16
2019-05-07T07:22:49.602Z,1014.17
2019-05-07T07:23:52.391Z,1014.18
2019-05-07T07:24:53.193Z,1014.17
2019-05-07T07:25:53.666Z,1014.19
2019-05-07T07:26:59.079Z,1014.08
2019-05-07T07:27:59.513Z,1014.13
2019-05-07T07:29:01.964Z,1014.04
2019-05-07T07:30:02.590Z,1014.03
2019-05-07T07:31:03.039Z,1014.02
2019-05-07T07:32:03.459Z,1014.06
2019-05-07T07:33:03.899Z,1014.07
2019-05-07T07:34:04.332Z,1014.10
2019-05-07T07:35:04.769Z,1013.98
2019-05-07T07:36:05.221Z,1014.00
2019-05-07T07:37:09.820Z,1014.01
2019-05-07T07:38:12.097Z,1014.06
2019-05-07T07:39:12.800Z,1014.06
2019-05-07T07:40:13.298Z,1014.03
2019-05-07T07:41:13.804Z,1014.04
2019-05-07T07:42:14.237Z,1013.96
2019-05-07T07:43:14.680Z,1014.03
2019-05-07T07:44:15.134Z,1014.02
2019-05-07T07:45:15.585Z,1014.03
2019-05-07T07:46:16.647Z,1013.94
2019-05-07T07:47:17.210Z,1013.99
2019-05-07T07:48:17.637Z,1013.90
2019-05-07T07:49:18.088Z,1013.94
2019-05-07T07:50:18.559Z,1013.92
2019-05-07T07:51:19.115Z,1013.95
2019-05-07T07:52:22.872Z,1013.92
2019-05-07T07:53:23.458Z,1013.88
2019-05-07T07:54:23.887Z,1013.89
2019-05-07T07:55:24.374Z,1013.96
2019-05-07T07:56:24.806Z,1013.92
2019-05-07T07:57:25.234Z,1013.86
2019-05-07T07:58:25.667Z,1013.85
2019-05-07T07:59:26.099Z,1013.95
2019-05-07T08:00:29.813Z,1013.92
2019-05-07T08:01:32.915Z,1013.86
2019-05-07T08:02:33.467Z,1013.88
2019-05-07T08:03:41.859Z,1013.84
2019-05-07T08:04:42.684Z,1013.84
2019-05-07T08:05:59.674Z,1013.83
2019-05-07T08:07:00.126Z,1013.86
2019-05-07T08:08:02.299Z,1013.87
2019-05-07T08:09:02.841Z,1013.90
2019-05-07T08:10:03.264Z,1013.89
2019-05-07T08:11:03.722Z,1013.88
2019-05-07T08:12:04.332Z,1013.87
2019-05-07T08:13:05.098Z,1013.85
2019-05-07T08:14:05.538Z,1013.83
2019-05-07T08:15:17.234Z,1013.85
2019-05-07T08:16:13.058Z,1013.80
2019-05-07T08:17:13.546Z,1013.85
2019-05-07T08:18:14.313Z,1013.82
2019-05-07T08:19:21.675Z,1013.83
2019-05-07T08:20:22.214Z,1013.80
2019-05-07T08:21:22.965Z,1013.83
2019-05-07T08:22:23.426Z,1013.78
2019-05-07T08:23:23.868Z,1013.78
2019-05-07T08:24:24.365Z,1013.75
2019-05-07T08:25:24.917Z,1013.76
2019-05-07T08:26:25.411Z,1013.69
2019-05-07T08:27:25.954Z,1013.75
2019-05-07T08:28:26.397Z,1013.75
2019-05-07T08:29:26.993Z,1013.72
2019-05-07T08:30:27.429Z,1013.75
2019-05-07T08:31:27.985Z,1013.68
2019-05-07T08:32:28.424Z,1013.73
2019-05-07T08:33:28.986Z,1013.69
2019-05-07T08:34:29.442Z,1013.69
2019-05-07T08:35:34.925Z,1013.68
2019-05-07T08:36:35.422Z,1013.70
2019-05-07T08:37:36.983Z,1013.68
2019-05-07T08:38:37.433Z,1013.69
2019-05-07T08:39:37.915Z,1013.62
2019-05-07T08:40:38.345Z,1013.65
2019-05-07T08:41:38.906Z,1013.72
2019-05-07T08:42:39.336Z,1013.69
2019-05-07T08:43:39.887Z,1013.64
2019-05-07T08:44:40.320Z,1013.66
2019-05-07T08:45:43.019Z,1013.67
2019-05-07T08:46:43.711Z,1013.68
2019-05-07T08:47:44.235Z,1013.71
2019-05-07T08:48:44.672Z,1013.63
2019-05-07T08:49:45.263Z,1013.63
2019-05-07T08:50:45.733Z,1013.61
2019-05-07T08:51:46.258Z,1013.64
2019-05-07T08:52:46.767Z,1013.64
2019-05-07T08:53:47.338Z,1013.64
2019-05-07T08:54:47.796Z,1013.67
2019-05-07T08:55:52.582Z,1013.59
2019-05-07T08:56:53.169Z,1013.55
2019-05-07T08:57:55.776Z,1013.62
2019-05-07T08:58:56.237Z,1013.60
2019-05-07T09:00:01.025Z,1013.56
2019-05-07T09:01:03.069Z,1013.52
2019-05-07T09:02:03.847Z,1013.53
2019-05-07T09:03:04.312Z,1013.57
2019-05-07T09:04:06.961Z,1013.57
2019-05-07T09:05:09.201Z,1013.56
2019-05-07T09:06:11.716Z,1013.50
2019-05-07T09:07:13.081Z,1013.54
2019-05-07T09:08:13.747Z,1013.46
2019-05-07T09:09:14.223Z,1013.49
2019-05-07T09:10:14.779Z,1013.53
2019-05-07T09:11:15.286Z,1013.49
2019-05-07T09:12:15.835Z,1013.49
2019-05-07T09:13:16.288Z,1013.48
2019-05-07T09:14:16.855Z,1013.43
2019-05-07T09:15:17.314Z,1013.43
2019-05-07T09:16:18.869Z,1013.47
2019-05-07T09:17:19.324Z,1013.45
2019-05-07T09:18:19.894Z,1013.45
2019-05-07T09:19:25.307Z,1013.41
2019-05-07T09:20:25.814Z,1013.37
2019-05-07T09:21:26.309Z,1013.40
2019-05-07T09:22:26.864Z,1013.36
2019-05-07T09:23:27.340Z,1013.31
2019-05-07T09:24:27.891Z,1013.32
2019-05-07T09:25:28.349Z,1013.31
2019-05-07T09:26:28.962Z,1013.30
2019-05-07T09:27:29.412Z,1013.30
2019-05-07T09:28:29.956Z,1013.33
2019-05-07T09:29:32.244Z,1013.38
2019-05-07T09:30:32.945Z,1013.32
2019-05-07T09:31:33.416Z,1013.32
2019-05-07T09:32:33.997Z,1013.29
2019-05-07T09:33:34.438Z,1013.29
2019-05-07T09:34:35.023Z,1013.25
2019-05-07T09:35:35.470Z,1013.29
2019-05-07T09:36:36.107Z,1013.34
2019-05-07T09:37:36.539Z,1013.31
2019-05-07T09:38:37.093Z,1013.26
2019-05-07T09:39:37.547Z,1013.32
2019-05-07T09:40:38.128Z,1013.22
2019-05-07T09:41:38.598Z,1013.20
2019-05-07T09:42:39.159Z,1013.24
2019-05-07T09:43:39.596Z,1013.21
2019-05-07T09:44:40.100Z,1013.18
2019-05-07T09:45:42.112Z,1013.24
2019-05-07T09:46:43.924Z,1013.13
2019-05-07T09:47:46.677Z,1013.14
2019-05-07T09:48:47.129Z,1013.12
2019-05-07T09:50:00.980Z,1013.18
2019-05-07T09:50:54.026Z,1013.11
2019-05-07T09:51:54.587Z,1013.11
2019-05-07T09:52:55.064Z,1013.09
2019-05-07T09:53:55.510Z,1013.14
2019-05-07T09:54:55.981Z,1013.06
2019-05-07T09:55:56.449Z,1013.14
2019-05-07T09:56:56.937Z,1013.08
2019-05-07T09:57:57.380Z,1013.08
2019-05-07T09:58:57.914Z,1013.12
2019-05-07T09:59:58.365Z,1013.15
2019-05-07T10:00:58.808Z,1013.12
2019-05-07T10:01:59.301Z,1013.12
2019-05-07T10:02:59.741Z,1013.13
2019-05-07T10:04:02.409Z,1013.14
2019-05-07T10:05:03.158Z,1013.10
2019-05-07T10:06:03.618Z,1013.13
2019-05-07T10:07:04.081Z,1013.10
2019-05-07T10:08:04.528Z,1013.06
2019-05-07T10:09:04.976Z,1013.06
2019-05-07T10:10:05.438Z,1013.08
2019-05-07T10:11:05.892Z,1013.03
2019-05-07T10:12:06.369Z,1013.00
2019-05-07T10:13:06.834Z,1012.93
2019-05-07T10:14:07.286Z,1012.97
2019-05-07T10:15:07.864Z,1012.97
2019-05-07T10:16:08.330Z,1012.89
2019-05-07T10:17:08.801Z,1012.93
2019-05-07T10:18:09.316Z,1012.89
2019-05-07T10:19:09.766Z,1012.85
2019-05-07T10:20:19.313Z,1012.89
2019-05-07T10:21:16.632Z,1012.86
2019-05-07T10:22:17.114Z,1012.85
2019-05-07T10:23:17.580Z,1012.83
2019-05-07T10:24:18.027Z,1012.79
2019-05-07T10:25:18.501Z,1012.83
2019-05-07T10:26:18.946Z,1012.80
2019-05-07T10:27:19.439Z,1012.75
2019-05-07T10:28:19.903Z,1012.78
2019-05-07T10:29:20.366Z,1012.73
2019-05-07T10:30:21.856Z,1012.74
2019-05-07T10:31:22.456Z,1012.70
2019-05-07T10:32:22.923Z,1012.65
2019-05-07T10:33:23.380Z,1012.70
2019-05-07T10:34:23.839Z,1012.65
2019-05-07T10:35:24.493Z,1012.67
2019-05-07T10:36:24.961Z,1012.73
2019-05-07T10:37:25.460Z,1012.68
2019-05-07T10:38:25.905Z,1012.60
2019-05-07T10:39:26.385Z,1012.65
2019-05-07T10:40:26.851Z,1012.63
2019-05-07T10:41:27.355Z,1012.62
2019-05-07T10:42:27.820Z,1012.65
2019-05-07T10:43:28.261Z,1012.60
2019-05-07T10:44:28.715Z,1012.62
2019-05-07T10:45:29.171Z,1012.53
2019-05-07T10:46:31.809Z,1012.57
2019-05-07T10:47:32.474Z,1012.60
2019-05-07T10:48:32.923Z,1012.56
2019-05-07T10:49:33.384Z,1012.60
2019-05-07T10:50:38.981Z,1012.53
2019-05-07T10:51:42.418Z,1012.47
2019-05-07T10:52:43.141Z,1012.40
2019-05-07T10:53:43.777Z,1012.48
2019-05-07T10:54:56.865Z,1012.44
2019-05-07T10:55:50.658Z,1012.39
2019-05-07T10:56:52.481Z,1012.46
2019-05-07T10:57:53.036Z,1012.48
2019-05-07T10:58:53.496Z,1012.50
2019-05-07T10:59:53.935Z,1012.40
2019-05-07T11:00:54.393Z,1012.45
2019-05-07T11:01:54.911Z,1012.44
2019-05-07T11:02:55.385Z,1012.42
2019-05-07T11:03:55.828Z,1012.40
2019-05-07T11:04:56.270Z,1012.38
2019-05-07T11:05:56.792Z,1012.38
2019-05-07T11:06:57.262Z,1012.41
2019-05-07T11:07:57.731Z,1012.41
2019-05-07T11:08:58.174Z,1012.41
2019-05-07T11:09:58.789Z,1012.46
2019-05-07T11:10:59.287Z,1012.39
2019-05-07T11:11:59.807Z,1012.34
2019-05-07T11:13:02.119Z,1012.42
2019-05-07T11:14:02.991Z,1012.37
2019-05-07T11:15:03.449Z,1012.33
2019-05-07T11:16:04.004Z,1012.27
2019-05-07T11:17:04.464Z,1012.25
2019-05-07T11:18:04.998Z,1012.21
2019-05-07T11:19:05.507Z,1012.27
2019-05-07T11:20:06.088Z,1012.20
2019-05-07T11:21:06.605Z,1012.21
2019-05-07T11:22:07.123Z,1012.20
2019-05-07T11:23:12.572Z,1012.16
2019-05-07T11:24:13.096Z,1012.18
2019-05-07T11:25:13.541Z,1012.24
2019-05-07T11:26:14.004Z,1012.18
2019-05-07T11:27:14.446Z,1012.11
2019-05-07T11:28:14.966Z,1012.15
2019-05-07T11:29:15.407Z,1012.06
2019-05-07T11:30:15.874Z,1012.13
2019-05-07T11:31:16.318Z,1012.12
2019-05-07T11:32:16.809Z,1012.09
2019-05-07T11:33:17.268Z,1012.08
2019-05-07T11:34:17.765Z,1012.07
2019-05-07T11:35:18.256Z,1012.11
2019-05-07T11:36:18.785Z,1012.15
2019-05-07T11:37:19.247Z,1012.11
2019-05-07T11:38:22.303Z,1012.07
2019-05-07T11:39:25.252Z,1012.09
2019-05-07T11:40:26.790Z,1012.12
2019-05-07T11:41:27.278Z,1012.10
2019-05-07T11:42:27.835Z,1012.07
2019-05-07T11:43:28.360Z,1012.06
2019-05-07T11:44:32.100Z,1012.13
2019-05-07T11:45:32.690Z,1012.04
2019-05-07T11:46:33.187Z,1012.05
2019-05-07T11:47:33.663Z,1012.09
2019-05-07T11:48:36.313Z,1012.00
2019-05-07T11:49:36.932Z,1012.01
2019-05-07T11:50:38.420Z,1012.02
2019-05-07T11:51:38.868Z,1011.99
2019-05-07T11:52:39.358Z,1011.96
2019-05-07T11:53:41.793Z,1012.03
2019-05-07T11:54:42.442Z,1011.93
2019-05-07T11:55:42.880Z,1011.98
2019-05-07T11:56:43.372Z,1012.01
2019-05-07T11:57:44.511Z,1011.95
2019-05-07T11:58:45.172Z,1011.98
2019-05-07T11:59:45.642Z,1011.94
2019-05-07T12:00:46.169Z,1011.96
2019-05-07T12:01:47.673Z,1011.91
2019-05-07T12:02:48.639Z,1011.87
2019-05-07T12:03:49.601Z,1011.83
2019-05-07T12:04:50.103Z,1011.88
2019-05-07T12:05:52.498Z,1011.86
2019-05-07T12:06:54.010Z,1011.89
2019-05-07T12:07:54.450Z,1011.86
2019-05-07T12:08:54.962Z,1011.82
2019-05-07T12:09:55.433Z,1011.81
2019-05-07T12:10:55.975Z,1011.78
2019-05-07T12:11:56.417Z,1011.80
2019-05-07T12:12:56.907Z,1011.82
2019-05-07T12:13:57.489Z,1011.79
2019-05-07T12:14:58.360Z,1011.79
2019-05-07T12:15:58.853Z,1011.75
2019-05-07T12:16:59.405Z,1011.70